createdAt,value
2019-01-29T00:27:02.880Z,77.86
2019-01-29T00:27:03.451Z,77.58
2019-01-29T00:27:04.052Z,77.95
2019-01-29T00:27:04.650Z,77.95
2019-01-29T00:27:05.261Z,77.76
2019-01-29T00:27:05.851Z,77.76
2019-01-29T00:27:06.450Z,77.95
2019-01-29T00:27:07.050Z,78.14
2019-01-29T00:28:01.555Z,77.76
2019-01-29T00:28:02.128Z,77.67
2019-01-29T00:28:02.726Z,77.58
2019-01-29T00:28:03.334Z,77.76
2019-01-29T00:28:03.928Z,77.67
2019-01-29T00:28:04.526Z,77.76
2019-01-29T00:28:05.129Z,77.67
2019-01-29T00:28:05.726Z,77.67
2019-01-29T00:28:59.209Z,77.67
2019-01-29T00:28:59.782Z,77.58
2019-01-29T00:29:00.381Z,77.58
2019-01-29T00:29:00.982Z,77.95
2019-01-29T00:29:01.585Z,77.76
2019-01-29T00:29:02.182Z,77.95
2019-01-29T00:29:02.780Z,77.67
2019-01-29T00:29:03.380Z,77.67
2019-01-29T00:29:57.882Z,77.82
2019-01-29T00:29:58.458Z,77.58
2019-01-29T00:29:59.056Z,77.53
2019-01-29T00:29:59.657Z,77.58
2019-01-29T00:30:00.257Z,77.76
2019-01-29T00:30:00.856Z,77.53
2019-01-29T00:30:01.461Z,77.82
2019-01-29T00:30:02.062Z,77.53
2019-01-29T00:30:56.559Z,77.53
2019-01-29T00:30:57.136Z,78.10
2019-01-29T00:30:57.734Z,77.44
2019-01-29T00:30:58.334Z,77.53
2019-01-29T00:30:58.932Z,77.44
2019-01-29T00:30:59.534Z,78.01
2019-01-29T00:31:00.133Z,77.48
2019-01-29T00:31:00.731Z,78.23
2019-01-29T00:31:54.222Z,77.91
2019-01-29T00:31:54.787Z,77.44
2019-01-29T00:31:55.389Z,77.63
2019-01-29T00:31:55.984Z,77.44
2019-01-29T00:31:56.588Z,77.48
2019-01-29T00:31:57.185Z,77.44
2019-01-29T00:31:57.785Z,77.91
2019-01-29T00:31:58.384Z,77.53
2019-01-29T00:32:52.887Z,77.58
2019-01-29T00:32:53.462Z,77.82
2019-01-29T00:32:54.061Z,77.53
2019-01-29T00:32:54.661Z,77.58
2019-01-29T00:32:55.262Z,77.86
2019-01-29T00:32:55.861Z,77.91
2019-01-29T00:32:56.461Z,77.86
2019-01-29T00:32:57.060Z,78.05
2019-01-29T00:33:50.541Z,77.95
2019-01-29T00:33:51.115Z,77.86
2019-01-29T00:33:51.714Z,77.82
2019-01-29T00:33:52.313Z,77.58
2019-01-29T00:33:52.914Z,77.58
2019-01-29T00:33:53.513Z,77.86
2019-01-29T00:33:54.112Z,77.58
2019-01-29T00:33:54.714Z,77.95
2019-01-29T00:34:49.216Z,77.86
2019-01-29T00:34:49.789Z,77.67
2019-01-29T00:34:50.390Z,77.95
2019-01-29T00:34:50.989Z,78.14
2019-01-29T00:34:51.590Z,78.05
2019-01-29T00:34:52.188Z,77.67
2019-01-29T00:34:52.788Z,77.95
2019-01-29T00:34:53.387Z,77.67
2019-01-29T00:35:47.894Z,77.58
2019-01-29T00:35:48.465Z,77.86
2019-01-29T00:35:49.065Z,77.67
2019-01-29T00:35:49.665Z,77.76
2019-01-29T00:35:50.274Z,77.86
2019-01-29T00:35:50.864Z,77.58
2019-01-29T00:35:51.465Z,77.76
2019-01-29T00:35:52.063Z,77.86
2019-01-29T00:36:46.570Z,77.10
2019-01-29T00:36:47.141Z,77.48
2019-01-29T00:36:47.742Z,77.48
2019-01-29T00:36:48.344Z,77.10
2019-01-29T00:36:48.938Z,77.29
2019-01-29T00:36:49.539Z,78.05
2019-01-29T00:36:50.138Z,77.48
2019-01-29T00:36:50.738Z,77.48
2019-01-29T00:37:44.221Z,77.29
2019-01-29T00:37:44.793Z,77.29
2019-01-29T00:37:45.393Z,77.39
2019-01-29T00:37:45.994Z,77.48
2019-01-29T00:37:46.595Z,77.29
2019-01-29T00:37:47.192Z,77.29
2019-01-29T00:37:47.793Z,77.67
2019-01-29T00:37:48.393Z,77.58
2019-01-29T00:38:42.897Z,77.29
2019-01-29T00:38:43.471Z,77.39
2019-01-29T00:38:44.068Z,77.39
2019-01-29T00:38:44.669Z,77.39
2019-01-29T00:38:45.267Z,77.39
2019-01-29T00:38:45.869Z,77.39
2019-01-29T00:38:46.467Z,77.29
2019-01-29T00:38:47.068Z,77.39
2019-01-29T00:39:41.571Z,76.53
2019-01-29T00:39:42.144Z,76.63
2019-01-29T00:39:42.744Z,77.10
2019-01-29T00:39:43.346Z,76.72
2019-01-29T00:39:43.944Z,76.53
2019-01-29T00:39:44.543Z,76.63
2019-01-29T00:39:45.149Z,76.53
2019-01-29T00:39:45.744Z,77.10
2019-01-29T00:40:40.246Z,76.72
2019-01-29T00:40:40.821Z,76.72
2019-01-29T00:40:41.422Z,76.72
2019-01-29T00:40:42.022Z,76.63
2019-01-29T00:40:42.620Z,76.53
2019-01-29T00:40:43.223Z,76.53
2019-01-29T00:40:43.820Z,76.63
2019-01-29T00:40:44.420Z,76.63
2019-01-29T00:41:37.902Z,76.82
2019-01-29T00:41:38.472Z,76.72
2019-01-29T00:41:39.072Z,76.91
2019-01-29T00:41:39.679Z,76.82
2019-01-29T00:41:40.272Z,76.91
2019-01-29T00:41:40.872Z,76.82
2019-01-29T00:41:41.471Z,76.91
2019-01-29T00:41:42.072Z,76.91
2019-01-29T00:42:35.553Z,76.72
2019-01-29T00:42:36.125Z,77.10
2019-01-29T00:42:36.725Z,76.91
2019-01-29T00:42:37.403Z,76.91
2019-01-29T00:42:37.925Z,76.91
2019-01-29T00:42:38.523Z,76.72
2019-01-29T00:42:39.126Z,77.10
2019-01-29T00:42:39.724Z,77.01
2019-01-29T00:43:34.225Z,76.34
2019-01-29T00:43:34.803Z,76.53
2019-01-29T00:43:35.399Z,76.72
2019-01-29T00:43:35.999Z,76.63
2019-01-29T00:43:36.599Z,76.63
2019-01-29T00:43:37.199Z,76.44
2019-01-29T00:43:37.798Z,76.63
2019-01-29T00:43:38.448Z,76.34
2019-01-29T00:44:31.880Z,76.25
2019-01-29T00:44:32.453Z,76.25
2019-01-29T00:44:33.051Z,76.25
2019-01-29T00:44:33.652Z,76.25
2019-01-29T00:44:34.252Z,76.25
2019-01-29T00:44:34.851Z,76.06
2019-01-29T00:44:35.451Z,76.25
2019-01-29T00:44:36.051Z,76.15
2019-01-29T00:45:29.533Z,75.96
2019-01-29T00:45:30.103Z,76.34
2019-01-29T00:45:30.706Z,76.25
2019-01-29T00:45:31.304Z,75.87
2019-01-29T00:45:31.903Z,76.34
2019-01-29T00:45:32.504Z,76.91
2019-01-29T00:45:33.103Z,75.87
2019-01-29T00:45:33.703Z,76.44
2019-01-29T00:46:28.207Z,75.96
2019-01-29T00:46:28.780Z,76.63
2019-01-29T00:46:29.379Z,76.82
2019-01-29T00:46:29.979Z,76.91
2019-01-29T00:46:30.578Z,76.44
2019-01-29T00:46:31.178Z,76.63
2019-01-29T00:46:31.778Z,75.96
2019-01-29T00:46:32.378Z,76.53
2019-01-29T00:47:25.858Z,76.15
2019-01-29T00:47:26.432Z,76.06
2019-01-29T00:47:27.031Z,76.25
2019-01-29T00:47:27.634Z,76.82
2019-01-29T00:47:28.231Z,76.25
2019-01-29T00:47:28.830Z,76.06
2019-01-29T00:47:29.430Z,76.72
2019-01-29T00:47:30.030Z,76.72
2019-01-29T00:48:23.510Z,76.34
2019-01-29T00:48:24.084Z,76.82
2019-01-29T00:48:24.684Z,76.91
2019-01-29T00:48:25.283Z,75.96
2019-01-29T00:48:25.882Z,76.63
2019-01-29T00:48:26.482Z,76.72
2019-01-29T00:48:27.082Z,76.06
2019-01-29T00:48:27.682Z,76.25
2019-01-29T00:49:22.755Z,76.44
2019-01-29T00:49:22.827Z,76.44
2019-01-29T00:49:23.358Z,76.44
2019-01-29T00:49:23.958Z,75.96
2019-01-29T00:49:24.570Z,76.53
2019-01-29T00:49:25.159Z,76.15
2019-01-29T00:49:25.756Z,76.44
2019-01-29T00:49:26.359Z,76.34
2019-01-29T00:50:20.862Z,76.15
2019-01-29T00:50:21.433Z,76.06
2019-01-29T00:50:22.034Z,76.44
2019-01-29T00:50:22.633Z,76.53
2019-01-29T00:50:23.235Z,76.53
2019-01-29T00:50:23.833Z,76.34
2019-01-29T00:50:24.432Z,76.34
2019-01-29T00:50:25.033Z,76.34
2019-01-29T00:51:19.536Z,75.78
2019-01-29T00:51:20.110Z,75.78
2019-01-29T00:51:20.753Z,75.96
2019-01-29T00:51:21.309Z,75.87
2019-01-29T00:51:21.908Z,75.96
2019-01-29T00:51:22.509Z,75.87
2019-01-29T00:51:23.108Z,75.96
2019-01-29T00:51:23.712Z,75.96
2019-01-29T00:52:17.189Z,75.96
2019-01-29T00:52:17.765Z,76.15
2019-01-29T00:52:18.364Z,76.06
2019-01-29T00:52:18.963Z,76.15
2019-01-29T00:52:19.561Z,76.06
2019-01-29T00:52:20.162Z,75.78
2019-01-29T00:52:20.761Z,76.06
2019-01-29T00:52:21.362Z,76.15
2019-01-29T00:53:15.867Z,76.25
2019-01-29T00:53:16.437Z,75.87
2019-01-29T00:53:17.038Z,76.25
2019-01-29T00:53:17.637Z,76.06
2019-01-29T00:53:18.237Z,76.15
2019-01-29T00:53:18.836Z,75.96
2019-01-29T00:53:19.436Z,76.25
2019-01-29T00:53:20.037Z,76.06
2019-01-29T00:54:13.517Z,75.87
2019-01-29T00:54:14.091Z,75.87
2019-01-29T00:54:14.689Z,75.78
2019-01-29T00:54:15.291Z,75.59
2019-01-29T00:54:15.892Z,75.68
2019-01-29T00:54:16.489Z,75.68
2019-01-29T00:54:17.089Z,75.68
2019-01-29T00:54:17.690Z,75.59
2019-01-29T00:55:11.168Z,75.34
2019-01-29T00:55:11.741Z,75.62
2019-01-29T00:55:12.341Z,75.72
2019-01-29T00:55:12.941Z,75.62
2019-01-29T00:55:13.541Z,75.43
2019-01-29T00:55:14.141Z,75.53
2019-01-29T00:55:14.740Z,75.34
2019-01-29T00:55:15.340Z,75.43
2019-01-29T00:56:09.843Z,75.24
2019-01-29T00:56:10.416Z,75.15
2019-01-29T00:56:11.016Z,75.34
2019-01-29T00:56:11.616Z,75.34
2019-01-29T00:56:12.215Z,75.34
2019-01-29T00:56:12.815Z,75.34
2019-01-29T00:56:13.417Z,75.24
2019-01-29T00:56:14.017Z,75.43
2019-01-29T00:57:08.520Z,75.53
2019-01-29T00:57:09.092Z,75.81
2019-01-29T00:57:09.692Z,75.72
2019-01-29T00:57:10.292Z,75.72
2019-01-29T00:57:10.892Z,75.81
2019-01-29T00:57:11.492Z,75.72
2019-01-29T00:57:12.090Z,75.81
2019-01-29T00:57:12.691Z,75.81
2019-01-29T00:58:07.196Z,75.81
2019-01-29T00:58:07.767Z,75.62
2019-01-29T00:58:08.368Z,75.62
2019-01-29T00:58:08.968Z,75.72
2019-01-29T00:58:09.567Z,75.05
2019-01-29T00:58:10.170Z,75.62
2019-01-29T00:58:10.767Z,75.72
2019-01-29T00:58:11.367Z,75.15
2019-01-29T00:59:05.870Z,75.05
2019-01-29T00:59:06.446Z,75.15
2019-01-29T00:59:07.043Z,75.15
2019-01-29T00:59:07.642Z,75.34
2019-01-29T00:59:08.243Z,75.15
2019-01-29T00:59:08.843Z,75.05
2019-01-29T00:59:09.443Z,75.15
2019-01-29T00:59:10.042Z,75.15
2019-01-29T01:00:03.528Z,75.15
2019-01-29T01:00:04.096Z,75.05
2019-01-29T01:00:04.696Z,75.34
2019-01-29T01:00:05.297Z,75.15
2019-01-29T01:00:05.897Z,75.34
2019-01-29T01:00:06.499Z,75.05
2019-01-29T01:00:07.095Z,75.05
2019-01-29T01:00:07.696Z,75.34
2019-01-29T01:01:01.177Z,75.72
2019-01-29T01:01:01.748Z,75.62
2019-01-29T01:01:02.347Z,75.53
2019-01-29T01:01:02.950Z,75.53
2019-01-29T01:01:03.548Z,75.05
2019-01-29T01:01:04.147Z,75.43
2019-01-29T01:01:04.748Z,75.05
2019-01-29T01:01:05.350Z,75.15
2019-01-29T01:01:59.849Z,75.34
2019-01-29T01:02:00.423Z,75.34
2019-01-29T01:02:01.023Z,75.05
2019-01-29T01:02:01.623Z,75.34
2019-01-29T01:02:02.223Z,75.34
2019-01-29T01:02:02.822Z,75.05
2019-01-29T01:02:03.422Z,75.43
2019-01-29T01:02:04.021Z,75.34
2019-01-29T01:02:58.529Z,75.34
2019-01-29T01:02:59.098Z,75.34
2019-01-29T01:02:59.701Z,75.34
2019-01-29T01:03:00.304Z,75.34
2019-01-29T01:03:00.898Z,75.05
2019-01-29T01:03:01.498Z,75.05
2019-01-29T01:03:02.098Z,75.34
2019-01-29T01:03:02.702Z,75.34
2019-01-29T01:03:57.201Z,75.53
2019-01-29T01:03:57.775Z,75.62
2019-01-29T01:03:58.374Z,75.62
2019-01-29T01:03:58.976Z,75.24
2019-01-29T01:03:59.577Z,75.62
2019-01-29T01:04:00.173Z,75.43
2019-01-29T01:04:00.773Z,75.62
2019-01-29T01:04:01.373Z,75.53
2019-01-29T01:04:54.855Z,75.43
2019-01-29T01:04:55.427Z,75.62
2019-01-29T01:04:56.027Z,75.72
2019-01-29T01:04:56.628Z,75.43
2019-01-29T01:04:57.226Z,75.62
2019-01-29T01:04:57.871Z,75.53
2019-01-29T01:04:58.426Z,75.72
2019-01-29T01:04:59.026Z,75.62
2019-01-29T01:05:53.531Z,75.81
2019-01-29T01:05:54.101Z,75.43
2019-01-29T01:05:54.708Z,75.91
2019-01-29T01:05:55.302Z,75.72
2019-01-29T01:05:55.900Z,75.53
2019-01-29T01:05:56.501Z,75.53
2019-01-29T01:05:57.101Z,75.53
2019-01-29T01:05:57.700Z,75.43
2019-01-29T01:06:52.208Z,75.34
2019-01-29T01:06:52.780Z,76.00
2019-01-29T01:06:53.377Z,75.53
2019-01-29T01:06:53.977Z,75.34
2019-01-29T01:06:54.578Z,75.81
2019-01-29T01:06:55.177Z,75.72
2019-01-29T01:06:55.778Z,75.72
2019-01-29T01:06:56.377Z,75.91
2019-01-29T01:07:49.857Z,75.81
2019-01-29T01:07:50.471Z,75.43
2019-01-29T01:07:51.031Z,75.62
2019-01-29T01:07:51.629Z,75.43
2019-01-29T01:07:52.229Z,75.43
2019-01-29T01:07:52.830Z,75.62
2019-01-29T01:07:53.429Z,75.53
2019-01-29T01:07:54.032Z,75.43
2019-01-29T01:08:48.533Z,75.24
2019-01-29T01:08:49.105Z,75.15
2019-01-29T01:08:49.710Z,76.00
2019-01-29T01:08:50.305Z,75.72
2019-01-29T01:08:50.905Z,75.34
2019-01-29T01:08:51.505Z,75.24
2019-01-29T01:08:52.106Z,75.34
2019-01-29T01:08:52.704Z,75.24
2019-01-29T01:09:47.207Z,75.34
2019-01-29T01:09:47.780Z,75.34
2019-01-29T01:09:56.819Z,75.34
2019-01-29T01:09:56.826Z,75.43
2019-01-29T01:09:56.993Z,75.34
2019-01-29T01:09:57.011Z,75.43
2019-01-29T01:09:57.099Z,75.34
2019-01-29T01:09:57.149Z,75.34
2019-01-29T01:10:44.860Z,75.62
2019-01-29T01:10:45.435Z,75.72
2019-01-29T01:10:46.032Z,75.72
2019-01-29T01:10:46.633Z,75.72
2019-01-29T01:10:47.233Z,75.72
2019-01-29T01:10:47.833Z,75.34
2019-01-29T01:10:48.432Z,75.62
2019-01-29T01:10:49.032Z,75.53
2019-01-29T01:11:42.512Z,75.53
2019-01-29T01:11:43.085Z,75.81
2019-01-29T01:11:43.685Z,76.00
2019-01-29T01:11:44.285Z,76.00
2019-01-29T01:11:44.887Z,76.00
2019-01-29T01:11:45.486Z,76.00
2019-01-29T01:11:46.084Z,76.00
2019-01-29T01:11:46.684Z,75.72
2019-01-29T01:12:40.164Z,75.72
2019-01-29T01:12:40.737Z,75.53
2019-01-29T01:12:41.336Z,75.91
2019-01-29T01:12:41.938Z,75.62
2019-01-29T01:12:42.536Z,75.72
2019-01-29T01:12:43.136Z,75.91
2019-01-29T01:12:43.736Z,75.53
2019-01-29T01:12:44.335Z,75.72
2019-01-29T01:13:37.816Z,76.19
2019-01-29T01:13:38.390Z,76.38
2019-01-29T01:13:38.989Z,76.10
2019-01-29T01:13:39.640Z,76.19
2019-01-29T01:13:40.186Z,76.19
2019-01-29T01:13:40.786Z,76.38
2019-01-29T01:13:41.386Z,76.10
2019-01-29T01:13:41.989Z,76.38
2019-01-29T01:14:36.491Z,75.91
2019-01-29T01:14:37.063Z,75.91
2019-01-29T01:14:37.662Z,75.81
2019-01-29T01:14:38.262Z,76.19
2019-01-29T01:14:38.863Z,75.72
2019-01-29T01:14:39.462Z,76.00
2019-01-29T01:14:40.062Z,75.91
2019-01-29T01:14:40.668Z,76.00
2019-01-29T01:15:35.166Z,76.57
2019-01-29T01:15:35.738Z,76.48
2019-01-29T01:15:36.337Z,76.57
2019-01-29T01:15:36.939Z,76.48
2019-01-29T01:15:37.538Z,76.48
2019-01-29T01:15:38.137Z,76.57
2019-01-29T01:15:38.738Z,76.19
2019-01-29T01:15:39.337Z,76.29
2019-01-29T01:16:33.841Z,76.95
2019-01-29T01:16:34.417Z,75.91
2019-01-29T01:16:35.016Z,75.91
2019-01-29T01:16:35.615Z,76.67
2019-01-29T01:16:36.214Z,76.00
2019-01-29T01:16:36.813Z,76.10
2019-01-29T01:16:37.415Z,76.67
2019-01-29T01:16:38.013Z,76.00
2019-01-29T01:17:32.517Z,77.04
2019-01-29T01:17:33.090Z,76.95
2019-01-29T01:17:33.690Z,76.86
2019-01-29T01:17:34.290Z,76.95
2019-01-29T01:17:34.891Z,76.95
2019-01-29T01:17:35.489Z,76.76
2019-01-29T01:17:36.090Z,76.67
2019-01-29T01:17:36.689Z,76.57
2019-01-29T01:18:31.192Z,77.42
2019-01-29T01:18:31.765Z,77.61
2019-01-29T01:18:32.365Z,77.51
2019-01-29T01:18:32.964Z,77.51
2019-01-29T01:18:33.566Z,77.51
2019-01-29T01:18:34.165Z,77.80
2019-01-29T01:18:34.763Z,77.80
2019-01-29T01:18:35.366Z,77.23
2019-01-29T01:19:28.845Z,77.89
2019-01-29T01:19:29.418Z,77.61
2019-01-29T01:19:30.018Z,77.70
2019-01-29T01:19:30.618Z,77.89
2019-01-29T01:19:31.217Z,77.89
2019-01-29T01:19:31.817Z,77.61
2019-01-29T01:19:32.418Z,77.61
2019-01-29T01:19:33.018Z,77.70
2019-01-29T01:20:27.520Z,77.86
2019-01-29T01:20:28.092Z,77.99
2019-01-29T01:20:28.693Z,77.99
2019-01-29T01:20:29.292Z,78.33
2019-01-29T01:20:29.892Z,78.27
2019-01-29T01:20:30.493Z,78.27
2019-01-29T01:20:31.091Z,78.08
2019-01-29T01:20:31.691Z,78.37
2019-01-29T01:21:25.172Z,78.75
2019-01-29T01:21:25.747Z,78.85
2019-01-29T01:21:26.352Z,78.71
2019-01-29T01:21:26.945Z,78.80
2019-01-29T01:21:27.555Z,78.71
2019-01-29T01:21:28.147Z,78.85
2019-01-29T01:21:28.746Z,78.71
2019-01-29T01:21:29.350Z,78.42
2019-01-29T01:22:22.824Z,79.18
2019-01-29T01:22:23.397Z,79.66
2019-01-29T01:22:23.997Z,79.69
2019-01-29T01:22:24.597Z,79.18
2019-01-29T01:22:25.198Z,79.75
2019-01-29T01:22:25.796Z,79.69
2019-01-29T01:22:26.398Z,79.56
2019-01-29T01:22:26.996Z,79.60
2019-01-29T01:23:21.499Z,79.85
2019-01-29T01:23:22.071Z,80.04
2019-01-29T01:23:22.673Z,80.07
2019-01-29T01:23:23.271Z,79.98
2019-01-29T01:23:23.874Z,80.26
2019-01-29T01:23:24.472Z,79.79
2019-01-29T01:23:25.072Z,80.04
2019-01-29T01:23:25.671Z,79.94
2019-01-29T01:24:19.151Z,80.45
2019-01-29T01:24:19.726Z,80.60
2019-01-29T01:24:20.326Z,80.32
2019-01-29T01:24:20.924Z,80.41
2019-01-29T01:24:21.524Z,80.64
2019-01-29T01:24:22.124Z,80.41
2019-01-29T01:24:22.725Z,80.45
2019-01-29T01:24:23.325Z,80.45
2019-01-29T01:25:16.802Z,80.51
2019-01-29T01:25:17.376Z,80.45
2019-01-29T01:25:17.977Z,80.36
2019-01-29T01:25:18.577Z,80.55
2019-01-29T01:25:19.176Z,80.55
2019-01-29T01:25:19.776Z,80.41
2019-01-29T01:25:20.377Z,80.64
2019-01-29T01:25:20.976Z,80.51
2019-01-29T01:26:14.456Z,80.98
2019-01-29T01:26:15.029Z,81.21
2019-01-29T01:26:15.629Z,81.02
2019-01-29T01:26:16.229Z,81.21
2019-01-29T01:26:16.829Z,81.30
2019-01-29T01:26:17.428Z,81.02
2019-01-29T01:26:18.029Z,81.02
2019-01-29T01:26:18.628Z,81.26
2019-01-29T01:27:13.133Z,82.12
2019-01-29T01:27:13.703Z,82.21
2019-01-29T01:27:14.303Z,81.36
2019-01-29T01:27:14.903Z,82.06
2019-01-29T01:27:15.503Z,81.83
2019-01-29T01:27:16.102Z,82.12
2019-01-29T01:27:16.704Z,82.15
2019-01-29T01:27:17.301Z,82.15
2019-01-29T01:28:10.783Z,82.50
2019-01-29T01:28:11.356Z,82.50
2019-01-29T01:28:11.956Z,82.59
2019-01-29T01:28:12.556Z,82.72
2019-01-29T01:28:13.165Z,82.34
2019-01-29T01:28:13.755Z,82.50
2019-01-29T01:28:14.355Z,82.31
2019-01-29T01:28:14.955Z,82.53
2019-01-29T01:29:09.457Z,83.10
2019-01-29T01:29:10.031Z,83.01
2019-01-29T01:29:10.635Z,83.10
2019-01-29T01:29:11.230Z,83.15
2019-01-29T01:29:11.829Z,83.15
2019-01-29T01:29:12.430Z,83.20
2019-01-29T01:29:13.030Z,83.20
2019-01-29T01:29:13.629Z,83.20
2019-01-29T01:30:08.133Z,83.48
2019-01-29T01:30:08.706Z,83.48
2019-01-29T01:30:09.305Z,83.34
2019-01-29T01:30:09.910Z,83.20
2019-01-29T01:30:10.506Z,83.39
2019-01-29T01:30:11.104Z,83.44
2019-01-29T01:30:11.704Z,83.58
2019-01-29T01:30:12.305Z,83.39
2019-01-29T01:31:06.809Z,83.72
2019-01-29T01:31:07.384Z,83.82
2019-01-29T01:31:07.983Z,83.95
2019-01-29T01:31:08.582Z,83.82
2019-01-29T01:31:09.181Z,84.61
2019-01-29T01:31:09.781Z,84.01
2019-01-29T01:31:10.382Z,84.39
2019-01-29T01:31:10.981Z,84.48
2019-01-29T01:32:05.485Z,84.48
2019-01-29T01:32:06.062Z,84.86
2019-01-29T01:32:06.658Z,85.09
2019-01-29T01:32:07.258Z,85.09
2019-01-29T01:32:07.857Z,84.71
2019-01-29T01:32:08.457Z,84.77
2019-01-29T01:32:09.056Z,84.81
2019-01-29T01:32:09.657Z,85.33
2019-01-29T01:33:03.137Z,85.47
2019-01-29T01:33:03.710Z,85.38
2019-01-29T01:33:04.311Z,85.38
2019-01-29T01:33:04.911Z,85.47
2019-01-29T01:33:05.509Z,85.47
2019-01-29T01:33:06.109Z,85.47
2019-01-29T01:33:06.710Z,85.75
2019-01-29T01:33:07.309Z,85.47
2019-01-29T01:34:01.811Z,86.04
2019-01-29T01:34:02.390Z,86.79
2019-01-29T01:34:02.986Z,86.04
2019-01-29T01:34:03.585Z,86.13
2019-01-29T01:34:04.184Z,86.70
2019-01-29T01:34:04.787Z,86.70
2019-01-29T01:34:05.385Z,86.70
2019-01-29T01:34:05.983Z,86.70
2019-01-29T01:35:00.489Z,87.93
2019-01-29T01:35:01.061Z,87.74
2019-01-29T01:35:01.662Z,87.93
2019-01-29T01:35:02.261Z,87.93
2019-01-29T01:35:02.860Z,87.84
2019-01-29T01:35:03.460Z,87.84
2019-01-29T01:35:04.062Z,87.65
2019-01-29T01:35:04.660Z,87.84
2019-01-29T01:35:59.167Z,89.06
2019-01-29T01:35:59.736Z,89.25
2019-01-29T01:36:00.336Z,88.78
2019-01-29T01:36:00.934Z,88.78
2019-01-29T01:36:01.536Z,88.87
2019-01-29T01:36:02.136Z,89.16
2019-01-29T01:36:02.735Z,89.16
2019-01-29T01:36:03.336Z,88.87
2019-01-29T01:36:56.815Z,89.73
2019-01-29T01:36:57.389Z,89.73
2019-01-29T01:36:57.989Z,89.73
2019-01-29T01:36:58.588Z,89.82
2019-01-29T01:36:59.189Z,89.73
2019-01-29T01:36:59.788Z,89.82
2019-01-29T01:37:00.387Z,89.63
2019-01-29T01:37:00.990Z,89.63
2019-01-29T01:37:54.468Z,90.96
2019-01-29T01:37:55.042Z,91.05
2019-01-29T01:37:55.641Z,91.05
2019-01-29T01:37:56.240Z,90.86
2019-01-29T01:37:56.841Z,91.15
2019-01-29T01:37:57.441Z,90.86
2019-01-29T01:37:58.040Z,90.86
2019-01-29T01:37:58.640Z,90.77
2019-01-29T01:38:53.143Z,91.62
2019-01-29T01:38:53.716Z,91.81
2019-01-29T01:38:54.316Z,91.91
2019-01-29T01:38:54.915Z,91.81
2019-01-29T01:38:55.516Z,91.91
2019-01-29T01:38:56.114Z,91.81
2019-01-29T01:38:56.714Z,91.72
2019-01-29T01:38:57.314Z,91.72
2019-01-29T01:39:50.796Z,92.85
2019-01-29T01:39:51.368Z,92.85
2019-01-29T01:39:51.969Z,92.76
2019-01-29T01:39:52.568Z,92.57
2019-01-29T01:39:53.168Z,92.76
2019-01-29T01:39:53.767Z,92.76
2019-01-29T01:39:54.367Z,92.76
2019-01-29T01:39:54.968Z,92.66
2019-01-29T01:40:48.447Z,93.80
2019-01-29T01:40:49.019Z,93.61
2019-01-29T01:40:49.621Z,93.51
2019-01-29T01:40:50.223Z,93.61
2019-01-29T01:40:50.819Z,93.42
2019-01-29T01:40:51.420Z,93.51
2019-01-29T01:40:52.019Z,93.61
2019-01-29T01:40:52.619Z,93.61
2019-01-29T01:41:47.124Z,93.99
2019-01-29T01:41:47.695Z,93.61
2019-01-29T01:41:48.294Z,93.70
2019-01-29T01:41:48.894Z,93.51
2019-01-29T01:41:49.493Z,93.61
2019-01-29T01:41:50.094Z,93.70
2019-01-29T01:41:50.697Z,93.61
2019-01-29T01:41:51.293Z,93.61
2019-01-29T01:42:45.800Z,95.03
2019-01-29T01:42:46.370Z,95.03
2019-01-29T01:42:46.974Z,95.03
2019-01-29T01:42:47.571Z,95.03
2019-01-29T01:42:48.170Z,95.03
2019-01-29T01:42:48.769Z,95.03
2019-01-29T01:42:49.370Z,95.12
2019-01-29T01:42:49.972Z,95.12
2019-01-29T01:43:44.473Z,95.03
2019-01-29T01:43:45.047Z,95.03
2019-01-29T01:43:45.646Z,95.03
2019-01-29T01:43:46.245Z,95.03
2019-01-29T01:43:46.845Z,95.03
2019-01-29T01:43:47.447Z,95.03
2019-01-29T01:43:48.046Z,95.03
2019-01-29T01:43:48.644Z,95.03
2019-01-29T01:44:42.124Z,94.84
2019-01-29T01:44:42.699Z,94.74
2019-01-29T01:44:43.299Z,94.84
2019-01-29T01:44:43.900Z,94.84
2019-01-29T01:44:44.498Z,94.65
2019-01-29T01:44:45.098Z,94.84
2019-01-29T01:44:45.697Z,94.84
2019-01-29T01:44:46.298Z,94.84
2019-01-29T01:45:40.801Z,95.03
2019-01-29T01:45:41.380Z,94.84
2019-01-29T01:45:41.975Z,94.84
2019-01-29T01:45:42.573Z,94.84
2019-01-29T01:45:43.172Z,94.84
2019-01-29T01:45:43.772Z,94.84
2019-01-29T01:45:44.373Z,95.03
2019-01-29T01:45:44.971Z,95.12
2019-01-29T01:46:38.453Z,95.03
2019-01-29T01:46:39.027Z,95.21
2019-01-29T01:46:39.626Z,95.03
2019-01-29T01:46:40.226Z,95.12
2019-01-29T01:46:40.826Z,95.12
2019-01-29T01:46:41.427Z,95.21
2019-01-29T01:46:42.026Z,95.12
2019-01-29T01:46:42.625Z,95.03
2019-01-29T01:47:37.128Z,95.03
2019-01-29T01:47:37.703Z,94.84
2019-01-29T01:47:38.301Z,95.12
2019-01-29T01:47:38.901Z,95.03
2019-01-29T01:47:39.500Z,95.12
2019-01-29T01:47:40.100Z,95.12
2019-01-29T01:47:40.699Z,94.74
2019-01-29T01:47:41.308Z,95.03
2019-01-29T01:48:35.804Z,95.12
2019-01-29T01:48:36.376Z,95.03
2019-01-29T01:48:36.977Z,95.12
2019-01-29T01:48:37.575Z,95.12
2019-01-29T01:48:38.176Z,95.31
2019-01-29T01:48:38.776Z,94.27
2019-01-29T01:48:39.375Z,95.12
2019-01-29T01:48:39.975Z,94.27
2019-01-29T01:49:34.482Z,94.37
2019-01-29T01:49:35.052Z,94.27
2019-01-29T01:49:35.652Z,94.27
2019-01-29T01:49:36.272Z,94.46
2019-01-29T01:49:36.852Z,94.46
2019-01-29T01:49:37.452Z,94.46
2019-01-29T01:49:38.052Z,94.46
2019-01-29T01:49:38.651Z,94.46
2019-01-29T01:50:33.154Z,93.89
2019-01-29T01:50:33.728Z,94.08
2019-01-29T01:50:34.327Z,93.89
2019-01-29T01:50:34.928Z,93.51
2019-01-29T01:50:35.527Z,94.08
2019-01-29T01:50:36.129Z,93.32
2019-01-29T01:50:36.727Z,94.18
2019-01-29T01:50:37.328Z,93.32
2019-01-29T01:51:31.829Z,93.70
2019-01-29T01:51:32.403Z,94.18
2019-01-29T01:51:33.003Z,93.99
2019-01-29T01:51:33.604Z,93.70
2019-01-29T01:51:34.202Z,93.99
2019-01-29T01:51:34.802Z,93.70
2019-01-29T01:51:35.403Z,93.61
2019-01-29T01:51:36.002Z,93.61
2019-01-29T01:52:30.507Z,93.51
2019-01-29T01:52:31.079Z,93.32
2019-01-29T01:52:31.679Z,93.32
2019-01-29T01:52:32.278Z,93.51
2019-01-29T01:52:32.878Z,93.23
2019-01-29T01:52:33.479Z,93.61
2019-01-29T01:52:34.078Z,93.32
2019-01-29T01:52:34.677Z,93.51
2019-01-29T01:53:29.182Z,94.08
2019-01-29T01:53:29.755Z,94.08
2019-01-29T01:53:30.357Z,94.08
2019-01-29T01:53:30.955Z,93.89
2019-01-29T01:53:31.555Z,94.18
2019-01-29T01:53:32.154Z,94.08
2019-01-29T01:53:32.754Z,93.89
2019-01-29T01:53:33.355Z,94.08
2019-01-29T01:54:27.866Z,94.08
2019-01-29T01:54:28.434Z,93.61
2019-01-29T01:54:29.031Z,94.08
2019-01-29T01:54:29.631Z,93.89
2019-01-29T01:54:30.230Z,93.42
2019-01-29T01:54:30.830Z,93.89
2019-01-29T01:54:31.430Z,94.08
2019-01-29T01:54:32.030Z,94.08
2019-01-29T01:55:26.533Z,94.08
2019-01-29T01:55:27.106Z,93.51
2019-01-29T01:55:27.706Z,94.08
2019-01-29T01:55:28.306Z,93.80
2019-01-29T01:55:28.905Z,93.42
2019-01-29T01:55:29.506Z,93.61
2019-01-29T01:55:30.105Z,94.18
2019-01-29T01:55:30.707Z,93.99
2019-01-29T01:56:25.210Z,93.51
2019-01-29T01:56:25.782Z,93.51
2019-01-29T01:56:26.385Z,93.51
2019-01-29T01:56:26.982Z,93.42
2019-01-29T01:56:27.585Z,93.80
2019-01-29T01:56:28.183Z,93.32
2019-01-29T01:56:28.787Z,93.80
2019-01-29T01:56:29.382Z,93.70
2019-01-29T01:57:22.862Z,92.85
2019-01-29T01:57:23.435Z,92.85
2019-01-29T01:57:24.035Z,92.76
2019-01-29T01:57:24.635Z,92.85
2019-01-29T01:57:25.235Z,92.76
2019-01-29T01:57:25.837Z,92.85
2019-01-29T01:57:26.477Z,92.66
2019-01-29T01:57:27.033Z,92.57
2019-01-29T01:58:20.513Z,92.66
2019-01-29T01:58:21.086Z,92.00
2019-01-29T01:58:21.696Z,92.19
2019-01-29T01:58:22.287Z,92.19
2019-01-29T01:58:22.887Z,92.10
2019-01-29T01:58:23.491Z,92.19
2019-01-29T01:58:24.086Z,92.10
2019-01-29T01:58:24.688Z,91.91
2019-01-29T01:59:19.189Z,91.72
2019-01-29T01:59:19.760Z,91.91
2019-01-29T01:59:20.360Z,91.91
2019-01-29T01:59:20.961Z,92.00
2019-01-29T01:59:21.562Z,92.00
2019-01-29T01:59:22.160Z,91.62
2019-01-29T01:59:22.760Z,91.72
2019-01-29T01:59:23.360Z,91.62
2019-01-29T02:00:16.840Z,91.34
2019-01-29T02:00:17.420Z,91.15
2019-01-29T02:00:18.014Z,91.43
2019-01-29T02:00:18.613Z,91.43
2019-01-29T02:00:19.215Z,91.15